Time;durP1;ratioP1;P1;durP2;ratioP2;P2;SDS_P1;SDS_P2;PMS_P1;PMS_P2;Temp;Humidity;BMP_temperature;BMP_pressure;BME280_temperature;BME280_humidity;BME280_pressure;Samples;Min_cycle;Max_cycle;Signal;HPM_P1;HPM_P2
2024/03/19 00:01:40;;;;;;;5.00;1.90;;;7.30;99.90;;;;;;4936588;28;20357;-94
2024/03/19 00:04:05;;;;;;;3.75;1.80;;;7.30;99.90;;;;;;4943180;28;20135;-95
2024/03/19 00:06:32;;;;;;;3.20;1.45;;;7.20;99.90;;;;;;4945466;28;20045;-94
2024/03/19 00:08:57;;;;;;;3.92;1.60;;;7.20;99.90;;;;;;4950791;28;20035;-93
2024/03/19 00:11:23;;;;;;;4.05;1.70;;;7.20;99.90;;;;;;4949503;28;20043;-93
2024/03/19 00:13:49;;;;;;;4.10;2.00;;;7.30;99.90;;;;;;4950308;28;20043;-95
2024/03/19 00:16:15;;;;;;;3.10;1.10;;;7.30;99.90;;;;;;4928330;28;20122;-94
2024/03/19 00:18:42;;;;;;;3.75;1.70;;;7.30;99.90;;;;;;4926176;28;20178;-91
2024/03/19 00:21:09;;;;;;;3.13;1.75;;;7.30;99.90;;;;;;4932036;28;20046;-91
2024/03/19 00:23:35;;;;;;;3.28;1.08;;;7.20;99.90;;;;;;4923788;28;20630;-93
2024/03/19 00:26:01;;;;;;;3.03;1.33;;;7.20;99.90;;;;;;4934389;28;20354;-95
2024/03/19 00:28:27;;;;;;;4.60;1.70;;;7.20;99.90;;;;;;4962966;28;20035;-89
2024/03/19 00:30:54;;;;;;;4.63;1.40;;;7.20;99.90;;;;;;4939117;28;20071;-94
2024/03/19 00:33:21;;;;;;;4.72;2.03;;;7.20;99.90;;;;;;4935168;28;20537;-92
2024/03/19 00:35:47;;;;;;;5.10;2.05;;;7.20;99.90;;;;;;4928496;28;20377;-93
2024/03/19 00:38:13;;;;;;;5.63;1.67;;;7.20;99.90;;;;;;4935249;28;20039;-93
2024/03/19 00:40:40;;;;;;;3.42;1.67;;;7.20;99.90;;;;;;4939389;28;20152;-95
2024/03/19 00:43:07;;;;;;;3.85;1.73;;;7.20;99.90;;;;;;4943403;28;20047;-95
2024/03/19 00:45:33;;;;;;;3.47;1.40;;;7.20;99.90;;;;;;4931884;28;20057;-93
2024/03/19 00:48:00;;;;;;;6.43;1.70;;;7.20;99.90;;;;;;4933287;28;20034;-94
2024/03/19 00:50:25;;;;;;;4.05;1.60;;;7.30;99.90;;;;;;4935826;28;20042;-94
2024/03/19 00:52:52;;;;;;;5.50;2.03;;;7.30;99.90;;;;;;4932556;28;20041;-95
2024/03/19 00:55:18;;;;;;;3.72;1.50;;;7.30;99.90;;;;;;4927864;28;20412;-93
2024/03/19 00:57:44;;;;;;;5.57;2.20;;;7.30;99.90;;;;;;4936229;28;20039;-95
2024/03/19 01:00:14;;;;;;;4.78;2.03;;;7.30;99.90;;;;;;4934714;28;20098;-95
2024/03/19 01:02:40;;;;;;;;;;;7.30;99.90;;;;;;4939987;28;20085;-96
2024/03/19 01:05:09;;;;;;;4.45;2.20;;;7.40;99.90;;;;;;4942308;28;19910;-95
2024/03/19 01:07:39;;;;;;;6.05;2.25;;;7.50;99.90;;;;;;4930214;28;20062;-94
2024/03/19 01:10:07;;;;;;;;;;;7.50;99.90;;;;;;4935836;28;20043;-94
2024/03/19 01:12:33;;;;;;;3.95;1.63;;;7.60;99.90;;;;;;4951713;28;19976;-94
2024/03/19 01:14:59;;;;;;;5.80;2.78;;;7.80;99.90;;;;;;4939349;28;20122;-92
2024/03/19 01:17:25;;;;;;;7.25;2.80;;;7.70;99.90;;;;;;4943793;28;20185;-95
2024/03/19 01:19:50;;;;;;;7.45;3.13;;;7.80;99.90;;;;;;4932847;28;20031;-94
2024/03/19 01:22:17;;;;;;;7.60;3.70;;;7.80;99.90;;;;;;4949029;28;20043;-93
2024/03/19 01:24:42;;;;;;;6.35;3.50;;;7.80;99.90;;;;;;4937161;28;20042;-95
2024/03/19 01:27:08;;;;;;;6.47;3.33;;;7.80;99.90;;;;;;4933804;28;20042;-95
2024/03/19 01:29:34;;;;;;;7.07;3.78;;;7.80;99.90;;;;;;4965376;28;20069;-93
2024/03/19 01:32:01;;;;;;;6.65;3.75;;;7.80;99.90;;;;;;4938230;28;20081;-94
2024/03/19 01:34:27;;;;;;;6.75;3.25;;;7.80;99.90;;;;;;4928641;28;20035;-95
2024/03/19 01:36:52;;;;;;;5.80;3.00;;;7.80;99.90;;;;;;4943565;28;20045;-94
2024/03/19 01:39:22;;;;;;;6.47;3.25;;;7.80;99.90;;;;;;4941634;28;20042;-95
2024/03/19 01:41:49;;;;;;;5.47;2.60;;;7.80;99.90;;;;;;4941059;28;20134;-96
2024/03/19 01:44:16;;;;;;;6.10;2.97;;;7.90;99.90;;;;;;4942107;28;20287;-95
2024/03/19 01:46:44;;;;;;;5.70;3.17;;;7.90;99.90;;;;;;4933750;28;20541;-95
2024/03/19 01:49:11;;;;;;;6.13;3.28;;;7.80;99.90;;;;;;4934038;28;20067;-95
2024/03/19 01:51:38;;;;;;;5.93;3.17;;;7.80;99.90;;;;;;4938699;28;20498;-94
2024/03/19 01:54:04;;;;;;;7.15;2.92;;;7.80;99.90;;;;;;4942464;28;20035;-93
2024/03/19 01:56:31;;;;;;;7.07;3.05;;;7.80;99.90;;;;;;4931259;29;20039;-94
2024/03/19 01:58:58;;;;;;;4.82;2.67;;;7.80;99.90;;;;;;4938961;28;20037;-95
2024/03/19 02:01:24;;;;;;;7.65;3.50;;;7.80;99.90;;;;;;4936562;28;20114;-95
2024/03/19 02:03:51;;;;;;;8.18;3.45;;;7.90;99.90;;;;;;4929157;28;20490;-95
2024/03/19 02:06:17;;;;;;;5.25;2.55;;;7.90;99.90;;;;;;4931055;28;20521;-93
2024/03/19 02:09:04;;;;;;;7.07;2.88;;;8.00;99.90;;;;;;4937007;28;20043;-95
2024/03/19 02:11:30;;;;;;;5.47;2.88;;;8.00;99.90;;;;;;4939747;28;20047;-95
2024/03/19 02:13:58;;;;;;;5.65;2.13;;;8.00;99.90;;;;;;4936324;28;20031;-92
2024/03/19 02:16:24;;;;;;;5.88;2.58;;;8.00;99.90;;;;;;4929386;28;20077;-95
2024/03/19 02:19:04;;;;;;;4.70;2.13;;;8.00;99.90;;;;;;4924964;28;20055;-95
2024/03/19 02:21:31;;;;;;;4.32;2.25;;;8.00;99.90;;;;;;4928928;28;20039;-95
2024/03/19 02:24:01;;;;;;;4.00;1.90;;;8.10;99.90;;;;;;4938802;28;20035;-96
2024/03/19 02:26:27;;;;;;;;;;;8.00;99.90;;;;;;4948633;28;20047;-89
2024/03/19 02:28:54;;;;;;;4.82;1.85;;;8.00;99.90;;;;;;4933901;28;20001;-95
2024/03/19 02:31:22;;;;;;;6.07;2.53;;;8.00;99.90;;;;;;4930500;28;20078;-94
2024/03/19 02:33:47;;;;;;;4.25;2.65;;;8.00;99.90;;;;;;4964146;28;20510;-95
2024/03/19 02:36:13;;;;;;;5.32;2.30;;;8.10;99.90;;;;;;4930552;28;20046;-95
2024/03/19 02:38:39;;;;;;;4.68;2.47;;;8.00;99.90;;;;;;4941465;28;20031;-94
2024/03/19 02:41:04;;;;;;;4.28;1.77;;;8.00;99.90;;;;;;4939166;28;20399;-96
2024/03/19 02:43:30;;;;;;;4.80;2.28;;;8.00;99.90;;;;;;4935257;28;20175;-91
2024/03/19 02:45:56;;;;;;;3.95;1.77;;;8.00;99.90;;;;;;4931987;28;20062;-95
2024/03/19 02:48:22;;;;;;;4.28;1.95;;;8.00;99.90;;;;;;4943428;28;20039;-95
2024/03/19 02:50:47;;;;;;;5.35;2.28;;;8.00;99.90;;;;;;4929273;28;20053;-95
2024/03/19 02:53:13;;;;;;;4.13;1.88;;;8.00;99.90;;;;;;4930638;28;21051;-96
2024/03/19 02:55:39;;;;;;;5.35;2.25;;;8.10;99.90;;;;;;4956354;28;20081;-96
2024/03/19 02:58:05;;;;;;;3.58;1.60;;;8.10;99.90;;;;;;4938610;28;20067;-95
2024/03/19 03:00:31;;;;;;;3.85;1.85;;;8.10;99.90;;;;;;4939058;28;20027;-96
2024/03/19 03:02:57;;;;;;;4.05;1.77;;;8.20;99.90;;;;;;4941113;28;20046;-95
2024/03/19 03:05:22;;;;;;;3.42;1.58;;;8.20;99.90;;;;;;4938786;28;20039;-94
2024/03/19 03:07:48;;;;;;;5.30;1.95;;;8.20;99.90;;;;;;4931917;28;20047;-95
2024/03/19 03:10:14;;;;;;;4.38;2.28;;;8.20;99.90;;;;;;4930908;28;20067;-96
2024/03/19 03:12:39;;;;;;;4.80;1.92;;;8.40;99.90;;;;;;4931992;28;20146;-95
2024/03/19 03:15:06;;;;;;;4.32;1.85;;;8.30;99.90;;;;;;4932399;28;20079;-95
2024/03/19 03:17:32;;;;;;;3.28;1.38;;;8.30;99.90;;;;;;4926597;28;20038;-95
2024/03/19 03:19:59;;;;;;;4.90;1.92;;;8.40;99.90;;;;;;4942766;28;20050;-95
2024/03/19 03:22:25;;;;;;;3.88;1.63;;;8.30;99.90;;;;;;4926994;28;20039;-94
2024/03/19 03:24:51;;;;;;;3.47;1.10;;;8.40;99.90;;;;;;4930961;28;20094;-92
2024/03/19 03:27:17;;;;;;;4.40;1.92;;;8.40;99.90;;;;;;4939699;28;20035;-95
2024/03/19 03:29:43;;;;;;;4.28;1.50;;;8.50;99.90;;;;;;4932230;28;20047;-94
2024/03/19 03:32:09;;;;;;;3.53;1.63;;;8.40;99.90;;;;;;4939982;28;20047;-92
2024/03/19 03:34:36;;;;;;;5.00;1.88;;;8.50;99.90;;;;;;4931025;29;20038;-93
2024/03/19 03:37:03;;;;;;;4.60;1.92;;;8.60;99.90;;;;;;4938991;28;20049;-94
2024/03/19 03:39:29;;;;;;;5.40;1.70;;;8.50;99.90;;;;;;4941029;28;20066;-93
2024/03/19 03:41:55;;;;;;;6.18;2.22;;;8.70;99.90;;;;;;4927646;28;20399;-94
2024/03/19 03:44:21;;;;;;;3.83;1.80;;;8.60;99.90;;;;;;4942596;28;20043;-95
2024/03/19 03:46:46;;;;;;;3.65;1.42;;;8.70;99.90;;;;;;4934156;28;20410;-95
2024/03/19 03:49:12;;;;;;;2.72;1.02;;;8.70;99.90;;;;;;4936382;28;20451;-94
2024/03/19 03:51:38;;;;;;;4.05;1.45;;;8.70;99.90;;;;;;4930887;28;20106;-93
2024/03/19 03:54:03;;;;;;;7.35;1.85;;;8.60;99.90;;;;;;4938629;28;20535;-95
2024/03/19 03:56:29;;;;;;;2.70;1.63;;;8.60;99.90;;;;;;4963656;28;20047;-95
2024/03/19 03:58:55;;;;;;;3.53;1.52;;;8.80;99.90;;;;;;4928687;28;20141;-95
2024/03/19 04:01:21;;;;;;;3.35;1.60;;;8.70;99.90;;;;;;4923657;28;20044;-95
2024/03/19 04:03:48;;;;;;;3.42;1.65;;;8.70;99.90;;;;;;4943587;28;20158;-94
2024/03/19 04:06:14;;;;;;;3.30;1.65;;;8.70;99.90;;;;;;4950140;28;20066;-93
2024/03/19 04:08:41;;;;;;;4.20;1.60;;;8.70;99.90;;;;;;4933699;29;20047;-94
2024/03/19 04:11:09;;;;;;;3.25;1.83;;;8.70;99.90;;;;;;4939454;28;20057;-94
2024/03/19 04:13:36;;;;;;;5.13;2.05;;;8.90;99.90;;;;;;4948532;28;20569;-93
2024/03/19 04:16:02;;;;;;;4.22;1.42;;;8.80;99.90;;;;;;4940698;28;20047;-93
2024/03/19 04:18:28;;;;;;;5.15;2.03;;;8.80;99.90;;;;;;4936346;28;20043;-93
2024/03/19 04:20:53;;;;;;;5.03;2.35;;;8.80;99.90;;;;;;4948288;28;20126;-93
2024/03/19 04:23:19;;;;;;;5.03;2.10;;;8.90;99.90;;;;;;4943714;28;20063;-94
2024/03/19 04:25:45;;;;;;;4.85;2.50;;;9.00;99.90;;;;;;4933957;28;20042;-94
2024/03/19 04:28:10;;;;;;;5.53;2.40;;;9.00;99.90;;;;;;4925331;28;20094;-92
2024/03/19 04:30:36;;;;;;;5.82;2.33;;;8.90;99.90;;;;;;4938832;28;20039;-93
2024/03/19 04:33:02;;;;;;;4.70;2.90;;;8.90;99.90;;;;;;4936848;28;20074;-94
2024/03/19 04:35:27;;;;;;;5.95;2.90;;;9.00;99.90;;;;;;4933278;28;20035;-93
2024/03/19 04:37:53;;;;;;;7.32;2.75;;;8.90;99.90;;;;;;4932431;28;20486;-94
2024/03/19 04:40:20;;;;;;;5.68;3.22;;;9.00;99.90;;;;;;4939910;28;20045;-96
2024/03/19 04:42:46;;;;;;;5.53;3.15;;;9.00;99.90;;;;;;4933447;28;20434;-94
2024/03/19 04:45:12;;;;;;;6.15;3.00;;;9.00;99.90;;;;;;4929429;28;20058;-93
2024/03/19 04:47:37;;;;;;;6.60;2.80;;;9.00;99.90;;;;;;4936078;28;20035;-94
2024/03/19 04:50:03;;;;;;;6.57;3.67;;;9.10;99.90;;;;;;4931498;28;20459;-94
2024/03/19 04:52:29;;;;;;;7.22;3.65;;;9.10;99.90;;;;;;4944124;28;20142;-94
2024/03/19 04:54:55;;;;;;;6.60;3.53;;;9.10;99.90;;;;;;4934139;28;20126;-93
2024/03/19 04:57:20;;;;;;;8.85;4.25;;;9.20;99.90;;;;;;4950221;28;20050;-92
2024/03/19 04:59:46;;;;;;;8.20;3.97;;;9.20;99.90;;;;;;4928867;28;20038;-94
2024/03/19 05:02:12;;;;;;;8.48;4.70;;;9.20;99.90;;;;;;4960795;28;20391;-93
2024/03/19 05:04:37;;;;;;;9.73;4.80;;;9.20;99.90;;;;;;4923150;28;20073;-93
2024/03/19 05:07:03;;;;;;;8.70;5.07;;;9.40;99.90;;;;;;4940861;28;20043;-94
2024/03/19 05:09:29;;;;;;;8.18;4.40;;;9.30;99.90;;;;;;4940379;28;20113;-92
2024/03/19 05:11:55;;;;;;;8.18;4.82;;;9.30;99.90;;;;;;4930506;28;20047;-93
2024/03/19 05:14:21;;;;;;;7.70;4.72;;;9.30;99.90;;;;;;4929615;28;20447;-94
2024/03/19 05:16:47;;;;;;;10.52;4.82;;;9.30;99.90;;;;;;4937681;28;20102;-93
2024/03/19 05:19:12;;;;;;;9.63;5.97;;;9.30;99.90;;;;;;4931502;28;20125;-94
2024/03/19 05:21:39;;;;;;;9.30;4.68;;;9.30;99.90;;;;;;4943908;28;20039;-93
2024/03/19 05:24:05;;;;;;;9.02;5.72;;;9.30;99.90;;;;;;4940721;28;20035;-94
2024/03/19 05:26:31;;;;;;;12.88;5.93;;;9.20;99.90;;;;;;4937222;28;20036;-94
2024/03/19 05:28:57;;;;;;;9.52;5.13;;;9.30;99.90;;;;;;4940859;28;20454;-89
2024/03/19 05:31:27;;;;;;;10.05;5.22;;;9.30;99.90;;;;;;4923117;28;20055;-90
2024/03/19 05:33:55;;;;;;;9.27;5.30;;;9.30;99.90;;;;;;4939309;28;20557;-94
2024/03/19 05:36:21;;;;;;;10.18;5.60;;;9.30;99.90;;;;;;4923197;28;20467;-88
2024/03/19 05:38:48;;;;;;;8.50;5.10;;;9.30;99.90;;;;;;4935595;28;20039;-89
2024/03/19 05:41:16;;;;;;;10.25;5.72;;;9.30;99.90;;;;;;4934076;28;20135;-88
2024/03/19 05:43:43;;;;;;;10.45;6.13;;;9.30;99.90;;;;;;4932126;28;20041;-89
2024/03/19 05:46:08;;;;;;;9.18;5.18;;;9.30;99.90;;;;;;4965841;28;20105;-88
2024/03/19 05:48:37;;;;;;;9.50;5.03;;;9.40;99.90;;;;;;4937086;28;20031;-89
2024/03/19 05:51:07;;;;;;;12.18;5.70;;;9.30;99.90;;;;;;4941172;28;20042;-89
2024/03/19 05:53:34;;;;;;;11.38;5.28;;;9.40;99.90;;;;;;4940204;28;20047;-89
2024/03/19 05:56:01;;;;;;;8.25;5.50;;;9.40;99.90;;;;;;4923744;28;20480;-88
2024/03/19 05:58:28;;;;;;;12.60;6.03;;;9.40;99.90;;;;;;4945929;28;20124;-88
2024/03/19 06:00:55;;;;;;;8.77;5.65;;;9.40;99.90;;;;;;4932174;28;20134;-89
2024/03/19 06:03:22;;;;;;;7.68;5.10;;;9.40;99.90;;;;;;4939043;28;20054;-89
2024/03/19 06:05:51;;;;;;;11.68;5.10;;;9.40;99.90;;;;;;4933895;28;20047;-88
2024/03/19 06:08:17;;;;;;;8.05;4.90;;;9.40;99.90;;;;;;4923756;28;20107;-89
2024/03/19 06:10:43;;;;;;;9.63;5.90;;;9.50;99.90;;;;;;4941644;28;20578;-88
2024/03/19 06:13:08;;;;;;;10.02;5.30;;;9.50;99.90;;;;;;4930696;28;20035;-91
2024/03/19 06:15:34;;;;;;;9.18;5.15;;;9.50;99.90;;;;;;4928066;28;20070;-92
2024/03/19 06:18:00;;;;;;;9.50;5.93;;;9.50;99.90;;;;;;4927181;28;20038;-91
2024/03/19 06:20:27;;;;;;;10.23;5.75;;;9.60;99.90;;;;;;4949716;28;20035;-91
2024/03/19 06:22:53;;;;;;;8.98;5.50;;;9.60;99.90;;;;;;4937579;28;20129;-91
2024/03/19 06:25:19;;;;;;;10.73;6.05;;;9.50;99.90;;;;;;4932094;28;20130;-92
2024/03/19 06:27:45;;;;;;;8.75;5.72;;;9.60;99.90;;;;;;4960905;28;20459;-91
2024/03/19 06:30:11;;;;;;;10.13;5.18;;;9.50;99.90;;;;;;4934991;28;20125;-92
2024/03/19 06:32:36;;;;;;;9.05;5.35;;;9.60;99.90;;;;;;4927717;28;20065;-92
2024/03/19 06:35:04;;;;;;;10.13;5.43;;;9.60;99.90;;;;;;4945328;28;20047;-92
2024/03/19 06:37:29;;;;;;;8.13;5.43;;;9.70;99.90;;;;;;4938446;28;20066;-91
2024/03/19 06:39:55;;;;;;;9.13;5.18;;;9.80;99.90;;;;;;4961044;28;20063;-91
2024/03/19 06:42:21;;;;;;;8.45;4.95;;;9.80;99.90;;;;;;4941297;28;20035;-91
2024/03/19 06:44:46;;;;;;;9.13;5.25;;;9.80;99.90;;;;;;4936718;28;20054;-91
2024/03/19 06:47:13;;;;;;;9.10;5.15;;;9.90;99.90;;;;;;4901615;28;20055;-93
2024/03/19 06:49:38;;;;;;;7.95;5.18;;;9.90;99.90;;;;;;4920359;28;20035;-93
2024/03/19 06:52:07;;;;;;;9.00;5.05;;;10.00;99.90;;;;;;4921405;28;20090;-93
2024/03/19 06:54:33;;;;;;;10.32;5.13;;;10.10;99.90;;;;;;4927851;28;20130;-92
2024/03/19 06:57:01;;;;;;;8.20;5.15;;;10.10;99.90;;;;;;4922500;28;20483;-92
2024/03/19 06:59:27;;;;;;;8.98;5.20;;;10.20;99.90;;;;;;4923785;28;20053;-91
2024/03/19 07:02:30;;;;;;;;;;;;;;;;;;;;;
2024/03/19 07:04:56;;;;;;;6.88;4.35;;;10.20;99.90;;;;;;4935610;28;20070;-93
2024/03/19 07:07:22;;;;;;;6.85;4.20;;;10.30;99.90;;;;;;4939154;28;20074;-92
2024/03/19 07:09:53;;;;;;;8.18;3.97;;;10.30;99.90;;;;;;4944023;28;20045;-91
2024/03/19 07:12:19;;;;;;;9.82;5.15;;;10.40;99.90;;;;;;4929233;28;20166;-93
2024/03/19 07:14:47;;;;;;;6.82;3.67;;;10.40;99.90;;;;;;4920481;28;20154;-94
2024/03/19 07:17:13;;;;;;;6.70;4.40;;;10.40;99.90;;;;;;4937324;28;20098;-91
2024/03/19 07:19:39;;;;;;;6.97;4.82;;;10.40;99.90;;;;;;4935577;28;20118;-92
2024/03/19 07:22:04;;;;;;;9.13;4.68;;;10.50;99.90;;;;;;4946538;28;20111;-92
2024/03/19 07:24:31;;;;;;;5.85;4.00;;;10.60;99.90;;;;;;4927307;28;20031;-91
2024/03/19 07:26:56;;;;;;;4.72;3.20;;;10.60;99.90;;;;;;4917344;28;20039;-92
2024/03/19 07:29:22;;;;;;;6.18;3.30;;;10.60;99.90;;;;;;4915375;28;20049;-89
2024/03/19 07:31:48;;;;;;;6.80;3.33;;;10.70;99.90;;;;;;4911067;28;20055;-93
2024/03/19 07:34:14;;;;;;;6.90;3.30;;;10.80;99.90;;;;;;4931970;28;20504;-93
2024/03/19 07:36:42;;;;;;;6.57;3.42;;;10.70;99.90;;;;;;4907086;28;20054;-91
2024/03/19 07:39:11;;;;;;;3.80;2.60;;;10.80;99.90;;;;;;4914057;28;20059;-93
2024/03/19 07:41:43;;;;;;;5.03;2.25;;;10.90;99.90;;;;;;4912386;28;20086;-90
2024/03/19 07:44:09;;;;;;;5.43;2.38;;;10.90;99.90;;;;;;4916114;28;20051;-88
2024/03/19 07:46:35;;;;;;;4.93;3.00;;;11.00;99.90;;;;;;4889846;28;20582;-90
2024/03/19 07:49:01;;;;;;;5.60;2.25;;;11.00;99.90;;;;;;4914786;28;20423;-88
2024/03/19 07:51:30;;;;;;;6.45;3.05;;;11.10;99.90;;;;;;4902371;28;20059;-90
2024/03/19 07:53:56;;;;;;;5.80;2.45;;;11.20;99.90;;;;;;4914620;29;20062;-91
2024/03/19 07:56:22;;;;;;;4.75;2.67;;;11.20;99.90;;;;;;4928163;28;20048;-88
2024/03/19 07:58:47;;;;;;;5.63;2.80;;;11.20;99.90;;;;;;4930941;28;20036;-91
2024/03/19 08:01:14;;;;;;;4.35;2.50;;;11.20;99.90;;;;;;4897342;28;20075;-89
2024/03/19 08:03:39;;;;;;;7.03;2.78;;;11.20;99.90;;;;;;4913779;28;20055;-91
2024/03/19 08:06:05;;;;;;;5.70;3.30;;;11.20;99.90;;;;;;4913756;28;20054;-89
2024/03/19 08:08:31;;;;;;;6.80;4.05;;;11.20;99.90;;;;;;4930878;28;20186;-90
2024/03/19 08:10:58;;;;;;;7.82;4.00;;;11.20;99.90;;;;;;4910302;28;20769;-88
2024/03/19 08:13:25;;;;;;;5.47;2.85;;;11.20;99.90;;;;;;4913319;28;20043;-89
2024/03/19 08:15:51;;;;;;;5.97;2.50;;;11.30;99.90;;;;;;4930294;28;20031;-90
2024/03/19 08:18:17;;;;;;;7.93;3.92;;;11.30;99.90;;;;;;4907855;29;20054;-88
2024/03/19 08:20:45;;;;;;;5.90;2.97;;;11.30;99.90;;;;;;4910054;28;20657;-89
2024/03/19 08:23:13;;;;;;;6.32;3.53;;;11.40;99.90;;;;;;4928921;28;20680;-90
2024/03/19 08:25:39;;;;;;;6.68;3.20;;;11.30;99.90;;;;;;4910261;28;20038;-89
2024/03/19 08:28:05;;;;;;;9.32;4.25;;;11.40;99.90;;;;;;4908380;28;20061;-89
2024/03/19 08:30:32;;;;;;;6.88;3.80;;;11.30;99.90;;;;;;4911695;28;20075;-89
2024/03/19 08:32:58;;;;;;;8.90;4.47;;;11.40;99.90;;;;;;4910320;28;20074;-89
2024/03/19 08:35:23;;;;;;;8.38;4.10;;;11.40;99.90;;;;;;4894111;28;20059;-90
2024/03/19 08:37:49;;;;;;;5.38;3.33;;;11.50;99.90;;;;;;4942903;28;20043;-90
2024/03/19 08:40:15;;;;;;;6.30;3.63;;;11.60;99.90;;;;;;4909850;28;20487;-89
2024/03/19 08:42:41;;;;;;;5.50;2.92;;;11.60;99.90;;;;;;4922893;28;20039;-89
2024/03/19 08:45:10;;;;;;;5.78;3.40;;;11.80;99.90;;;;;;4924130;28;20142;-89
2024/03/19 08:47:39;;;;;;;8.40;5.43;;;12.00;99.90;;;;;;4898694;28;20118;-89
2024/03/19 08:50:07;;;;;;;8.75;4.93;;;12.30;99.90;;;;;;4896638;28;20093;-89
2024/03/19 08:52:34;;;;;;;7.00;4.45;;;12.50;99.90;;;;;;4909444;28;20055;-89
2024/03/19 08:55:04;;;;;;;7.00;3.85;;;12.70;99.90;;;;;;4908916;28;20078;-89
2024/03/19 08:57:30;;;;;;;6.72;3.15;;;13.00;99.90;;;;;;4903313;28;20043;-89
2024/03/19 08:59:58;;;;;;;6.78;3.58;;;13.10;99.90;;;;;;4909004;28;20491;-89
2024/03/19 09:02:23;;;;;;;6.05;3.92;;;13.20;99.90;;;;;;4905264;28;20094;-88
2024/03/19 09:04:49;;;;;;;6.50;3.75;;;13.30;99.90;;;;;;4910246;28;20441;-90
2024/03/19 09:07:15;;;;;;;5.82;2.88;;;13.50;99.90;;;;;;4909544;28;20027;-89
2024/03/19 09:09:44;;;;;;;4.15;1.65;;;13.70;99.90;;;;;;4912373;28;20547;-89
2024/03/19 09:12:11;;;;;;;8.27;3.25;;;13.80;99.90;;;;;;4902763;28;20062;-88
2024/03/19 09:14:37;;;;;;;5.72;2.92;;;13.90;99.90;;;;;;4902511;28;20035;-91
2024/03/19 09:17:02;;;;;;;4.13;2.50;;;14.00;99.90;;;;;;4900093;28;20107;-89
2024/03/19 09:19:37;;;;;;;3.95;1.85;;;14.10;99.90;;;;;;4901485;28;20050;-89
2024/03/19 09:22:02;;;;;;;4.75;2.20;;;14.00;99.90;;;;;;4905512;28;20043;-89
2024/03/19 09:24:28;;;;;;;4.80;1.58;;;14.40;99.90;;;;;;4910355;28;20038;-89
2024/03/19 09:26:54;;;;;;;6.75;2.65;;;14.40;99.90;;;;;;4888516;28;20054;-89
2024/03/19 09:29:20;;;;;;;5.65;1.83;;;14.50;99.90;;;;;;4904575;28;20766;-88
2024/03/19 09:31:45;;;;;;;4.63;1.70;;;14.60;99.90;;;;;;4916797;28;20537;-90
2024/03/19 09:34:11;;;;;;;5.38;1.77;;;14.50;99.90;;;;;;4902005;28;20481;-88
2024/03/19 09:36:37;;;;;;;3.03;1.52;;;14.70;99.90;;;;;;4904496;28;20047;-88
2024/03/19 09:39:07;;;;;;;2.70;1.50;;;14.80;99.90;;;;;;4903292;28;20480;-88
2024/03/19 09:41:34;;;;;;;4.60;1.58;;;15.00;99.90;;;;;;4904332;28;20057;-88
2024/03/19 09:44:00;;;;;;;2.72;1.00;;;14.90;99.90;;;;;;4906470;28;20529;-88
2024/03/19 09:46:25;;;;;;;2.28;0.88;;;15.30;99.90;;;;;;4910048;28;20052;-87
2024/03/19 09:48:51;;;;;;;3.40;0.80;;;15.30;99.90;;;;;;4888167;28;20065;-89
2024/03/19 09:51:21;;;;;;;2.50;0.63;;;15.30;99.90;;;;;;4896621;28;20054;-88
2024/03/19 09:53:47;;;;;;;2.47;1.10;;;15.40;99.90;;;;;;4902245;28;20321;-88
2024/03/19 09:56:21;;;;;;;2.55;0.70;;;15.20;99.90;;;;;;4902591;28;20047;-85
2024/03/19 09:58:50;;;;;;;2.45;0.60;;;15.20;99.90;;;;;;4903592;28;20093;-88
2024/03/19 10:01:16;;;;;;;2.03;0.68;;;15.30;99.90;;;;;;4915936;28;20040;-87
2024/03/19 10:03:42;;;;;;;2.97;0.70;;;15.10;99.90;;;;;;4901762;28;20467;-86
2024/03/19 10:06:13;;;;;;;1.83;0.52;;;15.20;99.90;;;;;;4915038;28;20108;-88
2024/03/19 10:08:46;;;;;;;2.05;0.57;;;14.90;99.90;;;;;;4899364;28;20158;-88
2024/03/19 10:11:14;;;;;;;2.00;0.50;;;15.00;99.90;;;;;;4901025;28;20161;-89
2024/03/19 10:13:40;;;;;;;2.45;0.70;;;15.10;99.90;;;;;;4920834;28;20059;-87
2024/03/19 10:16:06;;;;;;;3.70;1.05;;;15.30;99.90;;;;;;4920090;28;20489;-88
2024/03/19 10:18:32;;;;;;;2.90;0.70;;;15.10;99.90;;;;;;4884929;28;20098;-88
2024/03/19 10:20:58;;;;;;;2.90;0.60;;;15.50;99.90;;;;;;4902073;28;20061;-88
2024/03/19 10:23:24;;;;;;;2.80;0.90;;;15.60;99.90;;;;;;4889097;28;20687;-88
2024/03/19 10:25:54;;;;;;;2.50;0.80;;;15.80;99.90;;;;;;4920125;28;20043;-88
2024/03/19 10:28:20;;;;;;;3.60;0.90;;;15.90;99.90;;;;;;4918981;28;20055;-88
2024/03/19 10:30:49;;;;;;;4.95;0.70;;;15.70;99.90;;;;;;4905814;28;20494;-87
2024/03/19 10:33:16;;;;;;;2.28;0.60;;;15.80;99.90;;;;;;4919006;28;20166;-88
2024/03/19 10:35:42;;;;;;;1.73;0.70;;;15.90;99.90;;;;;;4888271;28;20497;-87
2024/03/19 10:38:13;;;;;;;3.10;0.90;;;15.70;99.90;;;;;;4885865;28;20463;-87
2024/03/19 10:40:41;;;;;;;2.35;0.95;;;15.50;99.90;;;;;;4921941;28;20043;-87
2024/03/19 10:43:15;;;;;;;1.65;0.57;;;15.40;99.90;;;;;;4918612;28;20173;-88
2024/03/19 10:45:46;;;;;;;3.30;0.60;;;15.50;99.90;;;;;;4889727;28;20083;-87
2024/03/19 10:48:12;;;;;;;1.20;0.50;;;15.50;99.90;;;;;;4894442;28;20133;-87
2024/03/19 10:50:40;;;;;;;2.38;0.40;;;15.60;99.90;;;;;;4902490;28;20043;-87
2024/03/19 10:53:13;;;;;;;1.33;0.50;;;15.50;99.90;;;;;;4898114;28;20057;-87
2024/03/19 10:55:41;;;;;;;1.65;0.40;;;15.70;99.90;;;;;;4913291;28;20192;-87
2024/03/19 10:58:11;;;;;;;1.77;0.30;;;15.80;99.90;;;;;;4901863;28;20047;-87
2024/03/19 11:00:41;;;;;;;0.95;0.30;;;16.10;99.90;;;;;;4902731;28;20178;-87
2024/03/19 11:03:12;;;;;;;2.50;0.40;;;15.80;99.90;;;;;;4903135;28;20085;-87
2024/03/19 11:05:40;;;;;;;2.17;0.50;;;15.60;99.90;;;;;;4885209;28;20055;-87
2024/03/19 11:08:10;;;;;;;1.58;0.50;;;15.40;99.90;;;;;;4903641;28;20047;-87
2024/03/19 11:10:38;;;;;;;1.15;0.40;;;15.10;99.90;;;;;;4916458;28;20039;-86
2024/03/19 11:13:21;;;;;;;2.50;0.60;;;15.30;99.90;;;;;;4897541;28;20055;-88
2024/03/19 11:15:47;;;;;;;2.40;0.80;;;15.40;99.90;;;;;;4902492;28;20702;-85
2024/03/19 11:18:12;;;;;;;1.73;0.55;;;15.30;99.90;;;;;;4916539;28;20566;-86
2024/03/19 11:20:52;;;;;;;1.35;0.50;;;15.50;99.90;;;;;;4902535;28;20031;-88
2024/03/19 11:23:22;;;;;;;2.10;0.43;;;15.70;99.90;;;;;;4903344;28;20070;-89
2024/03/19 11:25:49;;;;;;;;;;;15.80;99.90;;;;;;4919372;28;21511;-86
2024/03/19 11:28:24;;;;;;;2.47;0.50;;;15.70;99.90;;;;;;4919947;28;19918;-88
2024/03/19 11:31:04;;;;;;;2.88;0.40;;;15.60;99.90;;;;;;4904309;28;20138;-88
2024/03/19 11:33:38;;;;;;;1.83;0.70;;;15.80;99.90;;;;;;4919474;28;20081;-87
2024/03/19 11:36:04;;;;;;;2.58;0.82;;;15.70;99.90;;;;;;4905086;28;20142;-88
2024/03/19 11:38:31;;;;;;;2.25;0.50;;;15.80;99.90;;;;;;4916315;28;20466;-89
2024/03/19 11:40:58;;;;;;;2.42;0.68;;;16.10;99.90;;;;;;4921547;28;20050;-89
2024/03/19 11:43:25;;;;;;;3.35;1.00;;;16.10;99.90;;;;;;4906977;28;20055;-88
2024/03/19 11:45:51;;;;;;;4.55;0.90;;;16.10;99.90;;;;;;4906237;28;20063;-88
2024/03/19 11:48:22;;;;;;;3.50;0.60;;;16.00;99.90;;;;;;4908544;28;20134;-88
2024/03/19 11:50:58;;;;;;;2.78;0.63;;;16.20;99.90;;;;;;4884673;28;21320;-88
2024/03/19 11:53:27;;;;;;;2.83;0.60;;;16.20;99.90;;;;;;4907971;28;20059;-87
2024/03/19 11:55:55;;;;;;;2.30;0.50;;;16.50;99.90;;;;;;4924473;28;20039;-88
2024/03/19 11:58:23;;;;;;;2.33;0.93;;;16.70;99.90;;;;;;4903062;28;20059;-89
2024/03/19 12:00:49;;;;;;;3.88;1.13;;;17.30;99.90;;;;;;4896525;28;20052;-88
2024/03/19 12:03:17;;;;;;;2.72;0.80;;;16.90;99.90;;;;;;4904351;28;20047;-88
2024/03/19 12:05:50;;;;;;;2.50;0.68;;;16.90;99.90;;;;;;4888586;28;20055;-89
2024/03/19 12:08:16;;;;;;;2.45;0.68;;;16.90;99.90;;;;;;4921038;28;20589;-89
2024/03/19 12:10:42;;;;;;;3.15;0.60;;;16.80;99.90;;;;;;4907478;28;20191;-89
2024/03/19 12:13:10;;;;;;;2.08;0.70;;;16.90;99.90;;;;;;4907957;28;20112;-88
2024/03/19 12:15:37;;;;;;;3.92;0.70;;;16.50;99.90;;;;;;4901462;28;20495;-89
2024/03/19 12:18:05;;;;;;;2.97;0.60;;;16.60;99.90;;;;;;4923956;28;20174;-88
2024/03/19 12:20:35;;;;;;;3.15;0.70;;;16.80;99.90;;;;;;4904858;28;20035;-89
2024/03/19 12:23:02;;;;;;;2.70;0.50;;;16.80;99.90;;;;;;4895111;28;20058;-89
2024/03/19 12:25:31;;;;;;;2.17;0.60;;;17.00;99.90;;;;;;4923930;28;20044;-89
2024/03/19 12:27:57;;;;;;;2.05;0.55;;;17.00;99.90;;;;;;4894039;28;20402;-87
2024/03/19 12:30:23;;;;;;;1.63;0.40;;;17.00;99.90;;;;;;4908535;28;20503;-89
2024/03/19 12:33:37;;;;;;;2.70;0.60;;;17.10;99.90;;;;;;4906677;28;20051;-88
2024/03/19 12:35:48;;;;;;;2.20;0.60;;;16.90;99.90;;;;;;4908945;28;20783;-89
2024/03/19 12:38:14;;;;;;;1.42;0.45;;;16.90;99.90;;;;;;4890164;28;20051;-87
2024/03/19 12:40:39;;;;;;;2.05;0.60;;;17.00;99.90;;;;;;4905674;28;20068;-89
2024/03/19 12:43:06;;;;;;;2.35;0.40;;;16.90;99.90;;;;;;4904501;28;20094;-89
2024/03/19 12:45:31;;;;;;;1.90;0.50;;;16.90;99.90;;;;;;4905967;28;20047;-88
2024/03/19 12:47:58;;;;;;;2.58;0.40;;;16.80;99.90;;;;;;4907380;28;20513;-88
2024/03/19 12:50:23;;;;;;;1.35;0.40;;;16.80;99.90;;;;;;4907649;28;20043;-88
2024/03/19 12:52:49;;;;;;;1.30;0.40;;;16.90;99.90;;;;;;4904679;28;20307;-88